createdAt,value
2023-05-06T00:00:07.955Z,0
2023-05-06T00:05:09.118Z,0
2023-05-06T00:10:08.308Z,0
2023-05-06T00:15:08.462Z,0
2023-05-06T00:20:08.735Z,0
2023-05-06T00:25:08.956Z,0
2023-05-06T00:30:08.095Z,0
2023-05-06T00:35:08.418Z,0
2023-05-06T00:40:08.692Z,0
2023-05-06T00:45:08.977Z,0
2023-05-06T00:50:08.215Z,0
2023-05-06T00:55:09.377Z,0
2023-05-06T01:00:08.603Z,0
2023-05-06T01:05:08.402Z,0
2023-05-06T01:10:08.567Z,0
2023-05-06T01:15:08.990Z,0
2023-05-06T01:20:08.210Z,0
2023-05-06T01:25:08.577Z,0
2023-05-06T01:30:08.831Z,0
2023-05-06T01:35:09.087Z,0
2023-05-06T01:40:08.203Z,0
2023-05-06T01:45:08.438Z,0
2023-05-06T01:50:08.593Z,0
2023-05-06T01:55:08.861Z,0
2023-05-06T02:00:08.100Z,0
2023-05-06T02:05:08.292Z,0
2023-05-06T02:10:08.421Z,0
2023-05-06T02:15:08.577Z,0
2023-05-06T02:20:08.734Z,0
2023-05-06T02:25:08.940Z,0
2023-05-06T02:30:08.183Z,0
2023-05-06T02:35:08.338Z,0
2023-05-06T02:40:08.498Z,0
2023-05-06T02:45:08.806Z,0
2023-05-06T02:50:08.034Z,0
2023-05-06T02:55:08.189Z,0
2023-05-06T03:00:08.451Z,0
2023-05-06T03:05:08.684Z,0
2023-05-06T03:10:08.865Z,0
2023-05-06T03:15:09.348Z,0
2023-05-06T03:20:08.633Z,2
2023-05-06T03:25:08.876Z,2
2023-05-06T03:30:08.084Z,9
2023-05-06T03:35:08.256Z,9
2023-05-06T03:40:08.518Z,38
2023-05-06T03:45:09.105Z,38
2023-05-06T03:50:08.338Z,72
2023-05-06T03:55:08.695Z,72
2023-05-06T04:00:08.879Z,332
2023-05-06T04:05:03.181Z,332
2023-05-06T04:10:03.238Z,478
2023-05-06T04:15:03.276Z,478
2023-05-06T04:20:04.635Z,738
2023-05-06T04:25:03.212Z,738
2023-05-06T04:30:12.683Z,1000
2023-05-06T04:35:03.261Z,1000
2023-05-06T04:40:03.786Z,1000
2023-05-06T04:45:03.832Z,1000
2023-05-06T04:50:03.073Z,2000
2023-05-06T04:55:02.692Z,2000
2023-05-06T05:00:03.206Z,2000
2023-05-06T05:05:03.110Z,2000
2023-05-06T05:10:02.541Z,3000
2023-05-06T05:15:02.999Z,3000
2023-05-06T05:20:02.742Z,3000
2023-05-06T05:25:04.599Z,4000
2023-05-06T05:30:03.327Z,4000
2023-05-06T05:35:02.801Z,5000
2023-05-06T05:40:03.506Z,4000
2023-05-06T05:45:04.860Z,4000
2023-05-06T05:50:03.336Z,6000
2023-05-06T05:55:02.971Z,6000
2023-05-06T06:00:02.409Z,6000
2023-05-06T06:05:03.028Z,6000
2023-05-06T06:10:02.762Z,11000
2023-05-06T06:15:03.898Z,11000
2023-05-06T06:20:03.551Z,11000
2023-05-06T06:25:03.395Z,11000
2023-05-06T06:30:03.007Z,13000
2023-05-06T06:35:02.640Z,13000
2023-05-06T06:40:03.269Z,10000
2023-05-06T06:45:04.051Z,10000
2023-05-06T06:50:02.581Z,10000
2023-05-06T06:55:03.419Z,10000
2023-05-06T07:00:05.256Z,20000
2023-05-06T07:05:08.274Z,20000
2023-05-06T07:10:03.616Z,14000
2023-05-06T07:15:03.514Z,14000
2023-05-06T07:20:03.429Z,12000
2023-05-06T07:25:03.182Z,12000
2023-05-06T07:30:04.660Z,10000
2023-05-06T07:35:04.560Z,10000
2023-05-06T07:40:02.915Z,11000
2023-05-06T07:45:08.309Z,11000
2023-05-06T07:50:03.134Z,23000
2023-05-06T07:55:02.898Z,23000
2023-05-06T08:00:04.400Z,71000
2023-05-06T08:05:03.429Z,75000
2023-05-06T08:10:05.074Z,75000
2023-05-06T08:15:02.424Z,88000
2023-05-06T08:20:03.764Z,88000
2023-05-06T08:25:13.062Z,52000
2023-05-06T08:30:04.782Z,52000
2023-05-06T08:35:03.728Z,45000
2023-05-06T08:40:04.235Z,45000
2023-05-06T08:45:02.929Z,54000
2023-05-06T08:50:02.518Z,54000
2023-05-06T08:55:03.592Z,87000
2023-05-06T09:00:10.351Z,87000
2023-05-06T09:05:04.975Z,40000
2023-05-06T09:10:10.998Z,40000
2023-05-06T09:15:03.502Z,84000
2023-05-06T09:20:03.104Z,84000
2023-05-06T09:25:03.083Z,85000
2023-05-06T09:30:03.051Z,85000
2023-05-06T09:35:02.474Z,88000
2023-05-06T09:40:05.975Z,72000
2023-05-06T09:45:02.795Z,72000
2023-05-06T09:50:09.471Z,82000
2023-05-06T09:55:02.799Z,82000
2023-05-06T10:00:04.672Z,81000
2023-05-06T10:05:06.037Z,81000
2023-05-06T10:10:03.841Z,88000
2023-05-06T10:15:04.541Z,88000
2023-05-06T10:20:03.694Z,86000
2023-05-06T10:25:03.472Z,86000
2023-05-06T10:30:04.445Z,83000
2023-05-06T10:35:02.781Z,83000
2023-05-06T10:40:03.108Z,93000
2023-05-06T10:45:02.736Z,20000
2023-05-06T10:50:13.485Z,56000
2023-05-06T10:55:03.026Z,56000
2023-05-06T11:00:02.349Z,24000
2023-05-06T11:05:05.869Z,24000
2023-05-06T11:10:03.497Z,20000
2023-05-06T11:15:03.158Z,87000
2023-05-06T11:20:02.592Z,65000
2023-05-06T11:25:03.296Z,65000
2023-05-06T11:30:03.171Z,79000
2023-05-06T11:35:08.202Z,79000
2023-05-06T11:40:02.589Z,87000
2023-05-06T11:45:04.375Z,87000
2023-05-06T11:50:03.408Z,76000
2023-05-06T11:55:03.406Z,76000
2023-05-06T12:00:06.407Z,37000
2023-05-06T12:05:04.126Z,37000
2023-05-06T12:10:04.004Z,69000
2023-05-06T12:15:03.015Z,69000
2023-05-06T12:20:02.693Z,65000
2023-05-06T12:25:04.002Z,65000
2023-05-06T12:30:03.429Z,72000
2023-05-06T12:35:02.887Z,72000
2023-05-06T12:40:03.208Z,56000
2023-05-06T12:45:02.907Z,56000
2023-05-06T12:50:04.105Z,64000
2023-05-06T12:55:03.074Z,64000
2023-05-06T13:00:02.826Z,65000
2023-05-06T13:05:07.854Z,65000
2023-05-06T13:10:04.611Z,33000
2023-05-06T13:15:03.644Z,64000
2023-05-06T13:20:05.013Z,64000
2023-05-06T13:25:12.507Z,55000
2023-05-06T13:30:03.018Z,55000
2023-05-06T13:35:02.487Z,53000
2023-05-06T13:40:03.017Z,53000
2023-05-06T13:45:02.435Z,57000
2023-05-06T13:50:03.605Z,57000
2023-05-06T13:55:03.149Z,43000
2023-05-06T14:00:02.537Z,35000
2023-05-06T14:05:05.384Z,35000
2023-05-06T14:10:02.969Z,33000
2023-05-06T14:15:02.224Z,33000
2023-05-06T14:20:03.567Z,28000
2023-05-06T14:25:02.719Z,28000
2023-05-06T14:30:07.436Z,41000
2023-05-06T14:35:04.286Z,41000
2023-05-06T14:40:06.792Z,30000
2023-05-06T14:45:03.597Z,30000
2023-05-06T14:50:02.830Z,29000
2023-05-06T14:55:03.712Z,31000
2023-05-06T15:00:03.752Z,31000
2023-05-06T15:05:04.242Z,30000
2023-05-06T15:10:02.564Z,30000
2023-05-06T15:15:02.630Z,30000
2023-05-06T15:20:02.723Z,30000
2023-05-06T15:25:02.909Z,33000
2023-05-06T15:30:03.031Z,33000
2023-05-06T15:35:02.168Z,20000
2023-05-06T15:40:02.366Z,20000
2023-05-06T15:45:02.485Z,16000
2023-05-06T15:50:03.613Z,15000
2023-05-06T15:55:02.865Z,15000
2023-05-06T16:00:02.908Z,14000
2023-05-06T16:05:03.166Z,14000
2023-05-06T16:10:02.266Z,12000
2023-05-06T16:15:02.391Z,12000
2023-05-06T16:20:02.507Z,9000
2023-05-06T16:25:02.552Z,9000
2023-05-06T16:30:02.721Z,8000
2023-05-06T16:35:02.826Z,8000
2023-05-06T16:40:03.012Z,7000
2023-05-06T16:45:02.086Z,7000
2023-05-06T16:50:02.229Z,6000
2023-05-06T16:55:02.365Z,6000
2023-05-06T17:00:02.701Z,6000
2023-05-06T17:05:02.858Z,6000
2023-05-06T17:10:03.005Z,5000
2023-05-06T17:15:02.105Z,5000
2023-05-06T17:20:02.241Z,4000
2023-05-06T17:25:02.345Z,4000
2023-05-06T17:30:02.485Z,3000
2023-05-06T17:35:02.642Z,3000
2023-05-06T17:40:03.424Z,2000
2023-05-06T17:45:02.579Z,2000
2023-05-06T17:50:02.843Z,2000
2023-05-06T17:55:15.719Z,2000
2023-05-06T18:00:02.876Z,2000
2023-05-06T18:05:03.002Z,2000
2023-05-06T18:10:02.144Z,1000
2023-05-06T18:15:02.306Z,1000
2023-05-06T18:20:02.564Z,1000
2023-05-06T18:25:02.694Z,1000
2023-05-06T18:30:02.778Z,913
2023-05-06T18:35:02.960Z,913
2023-05-06T18:40:02.061Z,666
2023-05-06T18:45:02.164Z,494
2023-05-06T18:50:02.300Z,334
2023-05-06T18:55:02.507Z,191
2023-05-06T19:00:02.678Z,92
2023-05-06T19:05:02.839Z,92
2023-05-06T19:10:02.979Z,53
2023-05-06T19:15:07.014Z,53
2023-05-06T19:20:02.109Z,32
2023-05-06T19:25:02.330Z,23
2023-05-06T19:30:02.377Z,14
2023-05-06T19:35:02.499Z,14
2023-05-06T19:40:02.663Z,2
2023-05-06T19:45:02.826Z,2
2023-05-06T19:50:02.899Z,0
2023-05-06T19:55:02.971Z,0
2023-05-06T20:00:02.148Z,0
2023-05-06T20:05:02.400Z,0
2023-05-06T20:10:02.526Z,0
2023-05-06T20:15:02.679Z,0
2023-05-06T20:20:04.825Z,0
2023-05-06T20:25:02.130Z,0
2023-05-06T20:30:02.360Z,0
2023-05-06T20:35:02.589Z,0
2023-05-06T20:40:02.753Z,0
2023-05-06T20:45:02.926Z,0
2023-05-06T20:50:03.088Z,0
2023-05-06T20:55:02.289Z,0
2023-05-06T21:00:02.579Z,0
2023-05-06T21:05:02.802Z,0
2023-05-06T21:10:02.959Z,0
2023-05-06T21:15:02.307Z,0
2023-05-06T21:20:04.134Z,0
2023-05-06T21:25:02.746Z,0
2023-05-06T21:30:02.861Z,0
2023-05-06T21:35:03.067Z,0
2023-05-06T21:40:02.193Z,0
2023-05-06T21:45:02.322Z,0
2023-05-06T21:50:02.463Z,0
2023-05-06T21:55:02.572Z,0
2023-05-06T22:00:02.663Z,0
2023-05-06T22:05:15.673Z,0
2023-05-06T22:10:08.762Z,0
2023-05-06T22:15:09.460Z,0
2023-05-06T22:20:08.848Z,0
2023-05-06T22:25:08.882Z,0
2023-05-06T22:30:08.090Z,0
2023-05-06T22:35:08.308Z,0
2023-05-06T22:40:08.655Z,0
2023-05-06T22:45:09.100Z,0
2023-05-06T22:50:08.596Z,0
2023-05-06T22:55:08.801Z,0
2023-05-06T23:01:15.864Z,0
2023-05-06T23:05:09.173Z,0
2023-05-06T23:10:08.877Z,0
2023-05-06T23:15:09.056Z,0
2023-05-06T23:20:08.166Z,0
2023-05-06T23:25:09.342Z,0
2023-05-06T23:30:08.443Z,0
2023-05-06T23:35:08.667Z,0
2023-05-06T23:40:08.781Z,0
2023-05-06T23:45:09.051Z,0
2023-05-06T23:50:08.874Z,0
2023-05-06T23:55:08.157Z,0
